Time;durP1;ratioP1;P1;durP2;ratioP2;P2;SDS_P1;SDS_P2;PMS_P1;PMS_P2;Temp;Humidity;BMP_temperature;BMP_pressure;BME280_temperature;BME280_humidity;BME280_pressure;Samples;Min_cycle;Max_cycle;Signal;HPM_P1;HPM_P2
2023/12/15 00:00:43;;;;;;;5.05;3.30;;;7.10;92.40;;;;;;5094744;28;20614;-88
2023/12/15 00:03:11;;;;;;;4.60;2.92;;;7.10;92.60;;;;;;5094322;28;20723;-88
2023/12/15 00:05:38;;;;;;;4.60;2.80;;;7.00;92.50;;;;;;5094040;28;20298;-89
2023/12/15 00:08:05;;;;;;;3.40;2.70;;;7.00;92.60;;;;;;5094697;28;20714;-89
2023/12/15 00:10:32;;;;;;;4.38;2.70;;;7.00;92.60;;;;;;5094835;28;20213;-88
2023/12/15 00:12:59;;;;;;;4.40;2.05;;;6.90;92.70;;;;;;5095137;28;20284;-89
2023/12/15 00:15:26;;;;;;;4.68;2.75;;;6.90;92.80;;;;;;5094517;28;20182;-88
2023/12/15 00:17:53;;;;;;;4.30;2.58;;;6.80;92.90;;;;;;5093652;28;20718;-88
2023/12/15 00:20:21;;;;;;;3.45;2.05;;;6.70;93.00;;;;;;5095111;28;20232;-88
2023/12/15 00:22:48;;;;;;;3.22;2.40;;;6.80;93.10;;;;;;5094931;28;20293;-89
2023/12/15 00:25:15;;;;;;;3.75;2.70;;;6.70;93.10;;;;;;5094584;28;20277;-89
2023/12/15 00:27:42;;;;;;;4.70;2.83;;;6.60;92.60;;;;;;5094911;28;20221;-89
2023/12/15 00:30:10;;;;;;;3.40;1.88;;;6.60;92.70;;;;;;5094424;28;20189;-88
2023/12/15 00:32:37;;;;;;;4.20;2.40;;;6.60;93.00;;;;;;5094511;28;20280;-87
2023/12/15 00:35:04;;;;;;;3.60;2.25;;;6.50;93.20;;;;;;5094707;28;20271;-87
2023/12/15 00:37:32;;;;;;;3.63;2.42;;;6.50;93.30;;;;;;5094333;28;20268;-87
2023/12/15 00:39:59;;;;;;;3.90;2.22;;;6.50;93.30;;;;;;5094480;28;20221;-87
2023/12/15 00:42:26;;;;;;;4.30;2.42;;;6.50;93.50;;;;;;5094169;28;20284;-88
2023/12/15 00:44:54;;;;;;;4.70;1.88;;;6.50;93.50;;;;;;5093899;28;20707;-88
2023/12/15 00:47:21;;;;;;;3.00;1.80;;;6.50;93.50;;;;;;5094003;28;20221;-87
2023/12/15 00:49:48;;;;;;;2.60;1.70;;;6.50;93.60;;;;;;5094253;28;20723;-86
2023/12/15 00:52:15;;;;;;;3.28;1.88;;;6.50;93.70;;;;;;5094412;28;20649;-87
2023/12/15 00:54:43;;;;;;;3.40;2.13;;;6.50;93.80;;;;;;5094096;28;20276;-87
2023/12/15 00:57:10;;;;;;;3.10;2.20;;;6.40;93.80;;;;;;5093986;28;20260;-87
2023/12/15 00:59:37;;;;;;;4.20;2.45;;;6.40;93.90;;;;;;5093821;28;20284;-88
2023/12/15 01:02:05;;;;;;;4.28;2.38;;;6.40;93.90;;;;;;5093860;28;20280;-87
2023/12/15 01:04:33;;;;;;;3.58;2.58;;;6.40;93.90;;;;;;5094200;28;20189;-87
2023/12/15 01:07:00;;;;;;;3.25;2.15;;;6.40;93.90;;;;;;5093561;28;20657;-87
2023/12/15 01:09:27;;;;;;;3.58;2.33;;;6.40;94.00;;;;;;5093768;28;20712;-88
2023/12/15 01:11:56;;;;;;;3.60;2.20;;;6.40;94.20;;;;;;5094170;28;20300;-87
2023/12/15 01:14:22;;;;;;;4.35;2.72;;;6.40;94.40;;;;;;5092825;28;20348;-88
2023/12/15 01:16:50;;;;;;;4.18;2.47;;;6.40;94.30;;;;;;5093280;28;20275;-88
2023/12/15 01:19:18;;;;;;;3.80;2.30;;;6.50;94.40;;;;;;5093979;28;20300;-89
2023/12/15 01:21:45;;;;;;;4.88;3.00;;;6.50;94.50;;;;;;5093978;28;20280;-89
2023/12/15 01:24:13;;;;;;;8.55;4.05;;;6.50;94.50;;;;;;5093461;28;20285;-89
2023/12/15 01:26:39;;;;;;;5.30;3.67;;;6.50;94.60;;;;;;5093545;28;20316;-88
2023/12/15 01:29:07;;;;;;;5.47;3.67;;;6.60;94.60;;;;;;5093665;28;20292;-89
2023/12/15 01:31:34;;;;;;;5.13;3.50;;;6.60;94.60;;;;;;5093634;28;20210;-90
2023/12/15 01:34:01;;;;;;;7.38;4.40;;;6.60;94.50;;;;;;5093775;28;20284;-90
2023/12/15 01:36:28;;;;;;;5.53;3.72;;;6.60;94.50;;;;;;5093230;28;20276;-90
2023/12/15 01:38:55;;;;;;;4.75;3.30;;;6.70;94.50;;;;;;5093672;28;20189;-90
2023/12/15 01:41:22;;;;;;;6.93;4.47;;;6.70;94.30;;;;;;5093375;28;20391;-90
2023/12/15 01:43:49;;;;;;;5.07;3.45;;;6.70;94.40;;;;;;5095050;28;20189;-89
2023/12/15 01:46:18;;;;;;;5.47;4.05;;;6.70;94.40;;;;;;5113554;28;20304;-90
2023/12/15 01:48:45;;;;;;;6.03;4.90;;;6.80;94.50;;;;;;5113654;28;20695;-90
2023/12/15 01:51:12;;;;;;;8.82;5.05;;;6.80;94.50;;;;;;5113871;28;20602;-90
2023/12/15 01:53:39;;;;;;;8.23;5.70;;;6.80;94.50;;;;;;5113705;28;20283;-88
2023/12/15 01:56:09;;;;;;;7.00;5.45;;;6.80;94.50;;;;;;5073036;28;20272;-89
2023/12/15 01:58:36;;;;;;;7.97;5.43;;;6.90;94.50;;;;;;5073264;28;20284;-89
2023/12/15 02:01:04;;;;;;;6.68;4.70;;;6.90;94.50;;;;;;5073319;28;20232;-89
2023/12/15 02:03:32;;;;;;;8.70;5.25;;;6.90;94.50;;;;;;5073209;28;20239;-89
2023/12/15 02:05:59;;;;;;;11.10;7.18;;;6.90;94.50;;;;;;5091807;28;20268;-89
2023/12/15 02:08:26;;;;;;;8.23;6.15;;;6.90;94.50;;;;;;5093363;28;20276;-85
2023/12/15 02:10:53;;;;;;;7.75;5.50;;;6.90;94.60;;;;;;5093048;28;20276;-89
2023/12/15 02:13:20;;;;;;;8.43;5.65;;;6.90;94.70;;;;;;5093380;28;20284;-89
2023/12/15 02:15:47;;;;;;;8.70;5.53;;;6.90;94.80;;;;;;5093040;28;20272;-89
2023/12/15 02:18:14;;;;;;;7.20;4.95;;;6.90;94.90;;;;;;5093254;28;20284;-90
2023/12/15 02:20:42;;;;;;;8.15;5.82;;;6.90;95.10;;;;;;5092946;28;20288;-90
2023/12/15 02:23:10;;;;;;;7.50;4.97;;;6.90;95.20;;;;;;5092886;28;20285;-90
2023/12/15 02:25:37;;;;;;;7.72;5.47;;;6.80;95.20;;;;;;5092674;28;20276;-90
2023/12/15 02:28:05;;;;;;;6.65;5.38;;;6.90;95.20;;;;;;5093169;28;20284;-89
2023/12/15 02:30:31;;;;;;;8.63;5.93;;;6.90;95.20;;;;;;5095516;28;20699;-89
2023/12/15 02:32:58;;;;;;;7.00;5.30;;;6.90;95.20;;;;;;5095129;28;20309;-89
2023/12/15 02:35:25;;;;;;;8.75;5.53;;;6.90;95.20;;;;;;5096955;28;20284;-89
2023/12/15 02:37:52;;;;;;;7.80;4.93;;;6.90;95.30;;;;;;5097157;28;20193;-88
2023/12/15 02:40:21;;;;;;;8.93;6.15;;;6.80;95.20;;;;;;5096568;28;20289;-89
2023/12/15 02:42:48;;;;;;;6.65;4.95;;;6.90;95.40;;;;;;5096232;28;20272;-89
2023/12/15 02:45:15;;;;;;;7.97;5.30;;;6.80;95.30;;;;;;5096554;28;20709;-89
2023/12/15 02:47:41;;;;;;;8.45;5.75;;;6.80;95.40;;;;;;5096275;28;20396;-89
2023/12/15 02:50:11;;;;;;;10.07;7.07;;;6.80;95.60;;;;;;5096180;28;20686;-89
2023/12/15 02:52:38;;;;;;;9.35;5.97;;;6.80;95.60;;;;;;5096439;28;20205;-89
2023/12/15 02:55:06;;;;;;;7.88;5.70;;;6.90;95.60;;;;;;5096701;28;20262;-91
2023/12/15 02:57:35;;;;;;;6.55;4.65;;;6.80;95.50;;;;;;5096267;28;20236;-89
2023/12/15 03:00:02;;;;;;;9.32;6.38;;;6.90;95.40;;;;;;5096320;28;20230;-90
2023/12/15 03:02:29;;;;;;;7.47;5.70;;;6.90;95.30;;;;;;5096315;28;20553;-89
2023/12/15 03:04:56;;;;;;;7.55;5.05;;;6.90;95.10;;;;;;5096263;28;20269;-89
2023/12/15 03:07:22;;;;;;;5.90;4.40;;;6.90;94.90;;;;;;5096178;28;20280;-89
2023/12/15 03:09:49;;;;;;;5.20;3.58;;;6.90;94.60;;;;;;5096411;28;20623;-88
2023/12/15 03:12:16;;;;;;;5.28;4.10;;;6.90;94.50;;;;;;5096199;28;20288;-88
2023/12/15 03:14:44;;;;;;;4.60;3.28;;;7.00;94.30;;;;;;5096279;28;20272;-90
2023/12/15 03:17:11;;;;;;;4.72;3.15;;;6.90;93.90;;;;;;5095845;28;20703;-89
2023/12/15 03:19:40;;;;;;;6.18;4.25;;;7.00;93.40;;;;;;5096114;28;20277;-90
2023/12/15 03:22:06;;;;;;;5.47;3.63;;;6.90;93.30;;;;;;5095807;28;20190;-90
2023/12/15 03:24:33;;;;;;;5.53;3.90;;;7.00;93.00;;;;;;5095806;28;20280;-90
2023/12/15 03:27:00;;;;;;;5.40;3.50;;;7.00;92.70;;;;;;5095792;28;20193;-89
2023/12/15 03:29:27;;;;;;;5.45;3.45;;;7.00;92.70;;;;;;5095675;28;20710;-87
2023/12/15 03:31:56;;;;;;;4.95;3.50;;;7.00;92.70;;;;;;5095390;28;20659;-88
2023/12/15 03:34:23;;;;;;;4.55;3.33;;;6.90;92.60;;;;;;5096445;28;20276;-89
2023/12/15 03:36:50;;;;;;;6.75;4.28;;;6.90;92.60;;;;;;5095560;28;20276;-88
2023/12/15 03:39:17;;;;;;;4.25;3.40;;;6.90;92.60;;;;;;5095941;28;20292;-90
2023/12/15 03:41:43;;;;;;;8.05;4.10;;;6.80;92.60;;;;;;5095364;28;20606;-89
2023/12/15 03:44:10;;;;;;;4.45;3.50;;;6.80;92.40;;;;;;5095888;28;20276;-89
2023/12/15 03:46:37;;;;;;;5.07;3.92;;;6.90;92.30;;;;;;5095754;28;20320;-89
2023/12/15 03:49:06;;;;;;;5.05;3.53;;;6.90;92.10;;;;;;5095318;28;20221;-89
2023/12/15 03:51:33;;;;;;;5.43;4.22;;;6.80;92.10;;;;;;5094987;28;20284;-90
2023/12/15 03:54:00;;;;;;;6.05;4.50;;;6.80;92.00;;;;;;5095674;28;20281;-89
2023/12/15 03:56:27;;;;;;;5.78;4.55;;;6.70;92.00;;;;;;5095533;28;20281;-88
2023/12/15 03:58:54;;;;;;;5.05;3.75;;;6.70;91.50;;;;;;5095514;28;20268;-87
2023/12/15 04:01:21;;;;;;;5.68;4.28;;;6.70;91.60;;;;;;5095108;28;20264;-88
2023/12/15 04:03:48;;;;;;;6.20;3.72;;;6.70;91.30;;;;;;5095021;28;20211;-88
2023/12/15 04:06:16;;;;;;;5.10;3.97;;;6.60;91.10;;;;;;5095268;28;20272;-88
2023/12/15 04:08:43;;;;;;;6.28;3.95;;;6.60;91.00;;;;;;5095263;28;20701;-87
2023/12/15 04:11:10;;;;;;;5.10;3.42;;;6.40;91.10;;;;;;5094855;28;20274;-88
2023/12/15 04:13:37;;;;;;;5.40;3.90;;;6.40;91.20;;;;;;5095038;28;20309;-89
2023/12/15 04:16:05;;;;;;;4.95;3.45;;;6.30;91.10;;;;;;5094812;28;20277;-88
2023/12/15 04:18:33;;;;;;;7.20;4.60;;;6.30;91.20;;;;;;5095056;28;20192;-87
2023/12/15 04:21:02;;;;;;;7.45;4.13;;;6.20;91.30;;;;;;5095018;28;20204;-88
2023/12/15 04:23:30;;;;;;;6.30;4.13;;;6.20;91.40;;;;;;5094646;28;20290;-84
2023/12/15 04:25:58;;;;;;;8.18;4.60;;;6.20;91.30;;;;;;5094933;28;20221;-87
2023/12/15 04:28:26;;;;;;;5.68;3.88;;;6.20;91.10;;;;;;5094601;28;20700;-88
2023/12/15 04:30:52;;;;;;;5.78;4.38;;;6.20;90.90;;;;;;5094493;28;20190;-88
2023/12/15 04:33:19;;;;;;;6.35;4.97;;;6.20;90.70;;;;;;5094493;28;20300;-87
2023/12/15 04:35:46;;;;;;;6.85;4.82;;;6.20;90.90;;;;;;5094774;28;20276;-87
2023/12/15 04:38:13;;;;;;;8.35;5.75;;;6.10;90.90;;;;;;5094727;28;20277;-87
2023/12/15 04:40:42;;;;;;;4.75;3.70;;;6.10;91.10;;;;;;5094297;28;20197;-86
2023/12/15 04:43:09;;;;;;;6.97;4.72;;;6.20;91.10;;;;;;5094336;28;20553;-87
2023/12/15 04:45:36;;;;;;;5.30;4.30;;;6.20;90.60;;;;;;5094377;28;20194;-84
2023/12/15 04:48:03;;;;;;;6.88;4.47;;;6.20;90.60;;;;;;5094784;28;20265;-87
2023/12/15 04:50:30;;;;;;;5.95;3.95;;;6.10;90.70;;;;;;5094225;28;20186;-87
2023/12/15 04:52:57;;;;;;;7.80;5.00;;;6.10;90.80;;;;;;5093103;28;20210;-88
2023/12/15 04:55:24;;;;;;;7.35;5.75;;;6.10;90.80;;;;;;5094139;28;20276;-89
2023/12/15 04:57:52;;;;;;;7.32;5.00;;;6.10;90.80;;;;;;5094027;28;20631;-88
2023/12/15 05:00:19;;;;;;;9.52;5.88;;;6.10;90.80;;;;;;5093667;28;20264;-88
2023/12/15 05:02:47;;;;;;;7.47;5.32;;;6.10;90.80;;;;;;5094235;28;20284;-88
2023/12/15 05:05:14;;;;;;;7.40;5.78;;;6.10;91.00;;;;;;5094949;28;20353;-88
2023/12/15 05:07:41;;;;;;;8.27;5.93;;;6.00;91.10;;;;;;5094130;28;20190;-89
2023/12/15 05:10:08;;;;;;;5.60;4.30;;;6.00;91.10;;;;;;5093294;28;20659;-89
2023/12/15 05:12:36;;;;;;;8.55;5.13;;;6.00;90.80;;;;;;5094259;28;20209;-88
2023/12/15 05:15:05;;;;;;;8.90;5.43;;;6.00;90.70;;;;;;5094321;28;20217;-88
2023/12/15 05:17:32;;;;;;;7.32;5.10;;;6.00;90.90;;;;;;5094272;28;20546;-88
2023/12/15 05:20:01;;;;;;;8.45;5.40;;;6.00;91.00;;;;;;5094154;28;20216;-88
2023/12/15 05:22:29;;;;;;;9.73;6.65;;;5.90;91.00;;;;;;5094191;28;20193;-88
2023/12/15 05:24:55;;;;;;;7.40;4.65;;;5.90;90.90;;;;;;5094142;28;20208;-88
2023/12/15 05:27:22;;;;;;;8.23;6.10;;;5.90;90.80;;;;;;5093857;28;20227;-88
2023/12/15 05:29:49;;;;;;;9.30;5.35;;;5.90;90.70;;;;;;5093068;28;20273;-88
2023/12/15 05:32:18;;;;;;;7.65;5.47;;;5.90;90.70;;;;;;5094014;28;20300;-87
2023/12/15 05:34:45;;;;;;;8.00;5.65;;;5.90;90.80;;;;;;5093706;28;20276;-88
2023/12/15 05:37:12;;;;;;;8.10;5.28;;;5.90;91.00;;;;;;5093584;28;20675;-87
2023/12/15 05:39:42;;;;;;;9.07;5.43;;;5.90;90.90;;;;;;5093355;28;20181;-89
2023/12/15 05:42:09;;;;;;;9.00;6.20;;;5.90;90.90;;;;;;5093950;28;20610;-87
2023/12/15 05:44:39;;;;;;;8.57;5.47;;;5.90;90.80;;;;;;5093929;28;20225;-87
2023/12/15 05:47:06;;;;;;;9.90;6.03;;;6.00;90.90;;;;;;5093934;28;20256;-88
2023/12/15 05:49:35;;;;;;;9.10;6.22;;;5.90;90.90;;;;;;5093582;28;20217;-89
2023/12/15 05:52:01;;;;;;;6.13;4.63;;;5.90;91.00;;;;;;5093673;28;20285;-89
2023/12/15 05:54:28;;;;;;;9.88;6.05;;;5.90;91.00;;;;;;5093823;28;20610;-89
2023/12/15 05:56:55;;;;;;;8.93;6.13;;;5.90;91.30;;;;;;5093709;28;20272;-88
2023/12/15 05:59:22;;;;;;;9.95;5.72;;;5.90;91.40;;;;;;5093117;28;20616;-89
2023/12/15 06:01:49;;;;;;;9.23;7.28;;;5.90;91.50;;;;;;5093230;28;20269;-89
2023/12/15 06:04:16;;;;;;;10.80;6.75;;;5.90;91.50;;;;;;5096922;28;20280;-88
2023/12/15 06:06:44;;;;;;;8.88;5.13;;;5.90;91.40;;;;;;5097793;28;20280;-88
2023/12/15 06:09:11;;;;;;;9.20;6.35;;;5.90;91.30;;;;;;5097840;28;20280;-89
2023/12/15 06:11:41;;;;;;;10.10;6.32;;;5.90;91.50;;;;;;5097233;28;20193;-89
2023/12/15 06:14:08;;;;;;;9.93;6.55;;;6.00;91.10;;;;;;5097306;28;20231;-88
2023/12/15 06:16:36;;;;;;;8.55;6.13;;;5.90;91.00;;;;;;5097346;28;20280;-89
2023/12/15 06:19:03;;;;;;;9.18;6.15;;;6.00;91.10;;;;;;5096913;28;20723;-88
2023/12/15 06:21:30;;;;;;;9.35;6.35;;;6.00;91.10;;;;;;5096916;28;20181;-88
2023/12/15 06:23:58;;;;;;;11.18;6.43;;;6.00;91.00;;;;;;5097024;28;20280;-87
2023/12/15 06:26:27;;;;;;;9.57;6.78;;;6.00;90.90;;;;;;5097188;28;20556;-88
2023/12/15 06:28:54;;;;;;;9.05;6.05;;;6.00;90.90;;;;;;5094529;28;20287;-87
2023/12/15 06:31:21;;;;;;;9.73;6.70;;;6.00;91.40;;;;;;5095399;28;20276;-88
2023/12/15 06:33:49;;;;;;;10.63;6.32;;;6.00;91.00;;;;;;5096363;28;20306;-87
2023/12/15 06:36:16;;;;;;;7.53;5.47;;;6.00;91.10;;;;;;5096524;28;20592;-87
2023/12/15 06:38:44;;;;;;;9.13;5.93;;;6.00;91.10;;;;;;5096464;28;20197;-87
2023/12/15 06:41:13;;;;;;;8.77;5.40;;;6.00;91.10;;;;;;5096257;28;20660;-87
2023/12/15 06:43:40;;;;;;;9.15;5.57;;;6.00;91.00;;;;;;5096169;28;20285;-88
2023/12/15 06:46:08;;;;;;;7.72;5.45;;;6.00;90.90;;;;;;5096303;28;20308;-88
2023/12/15 06:48:35;;;;;;;9.85;5.60;;;6.00;91.00;;;;;;5096350;28;20170;-89
2023/12/15 06:51:02;;;;;;;8.63;5.95;;;6.00;91.00;;;;;;5096375;28;20280;-88
2023/12/15 06:53:29;;;;;;;6.78;5.32;;;6.00;91.00;;;;;;5096288;28;20296;-88
2023/12/15 06:55:58;;;;;;;7.40;5.63;;;6.00;91.00;;;;;;5096064;28;20275;-86
2023/12/15 06:58:26;;;;;;;6.20;4.13;;;6.00;91.00;;;;;;5095907;28;20269;-87
2023/12/15 07:00:54;;;;;;;7.90;5.38;;;6.00;90.80;;;;;;5095871;28;20617;-88
2023/12/15 07:03:21;;;;;;;7.75;4.68;;;6.00;90.70;;;;;;5095770;28;20540;-86
2023/12/15 07:05:47;;;;;;;9.48;5.25;;;6.00;90.50;;;;;;5095806;28;20181;-86
2023/12/15 07:08:14;;;;;;;8.00;5.88;;;6.00;90.30;;;;;;5095641;28;20272;-88
2023/12/15 07:10:41;;;;;;;5.80;4.18;;;6.00;90.30;;;;;;5095780;28;20296;-88
2023/12/15 07:13:08;;;;;;;6.30;3.70;;;5.90;90.20;;;;;;5095811;28;20213;-86
2023/12/15 07:15:36;;;;;;;9.60;5.85;;;5.90;90.30;;;;;;5111190;28;20269;-87
2023/12/15 07:18:03;;;;;;;7.03;5.20;;;5.90;90.40;;;;;;5094482;28;20272;-88
2023/12/15 07:20:30;;;;;;;7.45;5.72;;;5.90;90.50;;;;;;5095429;28;20735;-90
2023/12/15 07:22:57;;;;;;;6.57;4.82;;;5.90;90.70;;;;;;5095245;28;20548;-91
2023/12/15 07:25:25;;;;;;;6.40;4.18;;;5.90;90.90;;;;;;5095363;28;20221;-91
2023/12/15 07:27:53;;;;;;;7.10;4.95;;;5.90;90.90;;;;;;5094655;28;20651;-91
2023/12/15 07:30:20;;;;;;;7.85;5.30;;;5.90;91.00;;;;;;5094779;28;20243;-92
2023/12/15 07:32:48;;;;;;;7.20;5.40;;;5.90;90.90;;;;;;5094916;28;20292;-89
2023/12/15 07:35:15;;;;;;;14.73;6.70;;;5.90;90.90;;;;;;5094561;28;20682;-92
2023/12/15 07:37:42;;;;;;;7.80;4.90;;;5.90;90.80;;;;;;5094845;28;20268;-90
2023/12/15 07:40:10;;;;;;;8.05;5.80;;;5.90;91.00;;;;;;5090868;28;20284;-91
2023/12/15 07:42:37;;;;;;;6.57;5.75;;;5.90;91.00;;;;;;5095199;28;20211;-88
2023/12/15 07:45:05;;;;;;;7.10;4.65;;;5.90;91.00;;;;;;5094743;28;20194;-91
2023/12/15 07:47:32;;;;;;;7.00;3.97;;;5.90;91.00;;;;;;5094801;28;20517;-90
2023/12/15 07:50:00;;;;;;;6.10;4.43;;;6.00;91.30;;;;;;5092782;28;20586;-86
2023/12/15 07:52:27;;;;;;;28.45;12.38;;;6.00;91.80;;;;;;5076865;28;20237;-90
2023/12/15 07:54:54;;;;;;;7.05;4.65;;;6.00;91.30;;;;;;5091007;28;20281;-91
2023/12/15 07:57:21;;;;;;;5.95;4.05;;;6.10;91.30;;;;;;5094324;28;20939;-91
2023/12/15 07:59:48;;;;;;;5.40;3.63;;;6.10;91.10;;;;;;5094480;28;20277;-91
2023/12/15 08:02:19;;;;;;;8.65;4.70;;;6.10;91.00;;;;;;5093988;28;20711;-88
2023/12/15 08:04:46;;;;;;;5.60;4.40;;;6.10;91.00;;;;;;5095107;28;20178;-88
2023/12/15 08:07:15;;;;;;;6.15;4.38;;;6.10;91.00;;;;;;5094088;28;20276;-90
2023/12/15 08:09:42;;;;;;;5.05;3.00;;;6.00;90.70;;;;;;5094137;28;20236;-90
2023/12/15 08:12:09;;;;;;;4.60;2.95;;;6.10;89.10;;;;;;5094460;28;20246;-91
2023/12/15 08:14:36;;;;;;;3.55;2.35;;;6.10;87.80;;;;;;5094179;28;20557;-92
2023/12/15 08:17:03;;;;;;;4.28;2.78;;;6.00;87.50;;;;;;5094794;28;20185;-91
2023/12/15 08:19:31;;;;;;;7.15;2.47;;;5.90;87.70;;;;;;5094422;28;20193;-89
2023/12/15 08:21:59;;;;;;;4.32;2.92;;;5.90;88.10;;;;;;5074450;28;20198;-91
2023/12/15 08:24:28;;;;;;;8.45;4.45;;;5.80;88.10;;;;;;5074799;28;20281;-92
2023/12/15 08:26:57;;;;;;;5.57;2.90;;;5.80;87.90;;;;;;5073382;28;20232;-92
2023/12/15 08:29:24;;;;;;;5.63;3.72;;;5.80;88.10;;;;;;5074349;28;20194;-91
2023/12/15 08:31:51;;;;;;;5.05;3.50;;;5.80;88.30;;;;;;5074335;28;20289;-91
2023/12/15 08:34:18;;;;;;;5.55;3.78;;;5.80;88.60;;;;;;5074578;28;20635;-91
2023/12/15 08:36:45;;;;;;;5.28;3.70;;;5.80;88.70;;;;;;5074465;28;20225;-91
2023/12/15 08:39:12;;;;;;;4.88;3.42;;;5.70;88.80;;;;;;5074535;28;20282;-91
2023/12/15 08:41:39;;;;;;;7.13;4.05;;;5.70;89.10;;;;;;5074359;28;20190;-91
2023/12/15 08:44:06;;;;;;;6.78;4.25;;;5.70;89.60;;;;;;5074634;28;20208;-91
2023/12/15 08:46:35;;;;;;;8.27;5.45;;;5.70;89.80;;;;;;5073837;28;20230;-91
2023/12/15 08:49:02;;;;;;;11.50;7.47;;;5.80;90.00;;;;;;5073972;28;20283;-91
2023/12/15 08:51:29;;;;;;;9.57;6.80;;;5.80;90.40;;;;;;5074243;28;20277;-92
2023/12/15 08:53:55;;;;;;;8.75;6.72;;;5.90;90.20;;;;;;5074150;28;20214;-91
2023/12/15 08:56:22;;;;;;;7.70;6.05;;;5.90;90.30;;;;;;5074311;28;20216;-91
2023/12/15 08:58:50;;;;;;;9.73;7.13;;;5.90;90.30;;;;;;5074154;28;20281;-90
2023/12/15 09:01:18;;;;;;;10.18;7.88;;;6.00;90.50;;;;;;5074018;28;20630;-89
2023/12/15 09:03:45;;;;;;;15.40;11.07;;;6.00;90.40;;;;;;5073686;28;20198;-91
2023/12/15 09:06:14;;;;;;;11.63;7.18;;;6.00;89.80;;;;;;5073705;28;20750;-90
2023/12/15 09:08:41;;;;;;;31.50;20.63;;;6.00;89.40;;;;;;5073945;28;20201;-91
2023/12/15 09:11:09;;;;;;;25.73;15.35;;;6.00;88.70;;;;;;5074036;28;20194;-90
2023/12/15 09:13:36;;;;;;;19.45;10.63;;;6.10;88.70;;;;;;5073458;28;20210;-91
2023/12/15 09:16:04;;;;;;;10.35;7.10;;;6.10;88.30;;;;;;5073682;28;20636;-90
2023/12/15 09:18:31;;;;;;;9.35;6.63;;;6.10;88.50;;;;;;5073999;28;20281;-91
2023/12/15 09:21:00;;;;;;;8.07;5.32;;;6.20;88.30;;;;;;5073750;28;20194;-91
2023/12/15 09:23:27;;;;;;;14.30;8.48;;;6.20;86.70;;;;;;5073410;28;20194;-91
2023/12/15 09:25:54;;;;;;;9.23;6.68;;;6.30;85.60;;;;;;5073745;28;20259;-90
2023/12/15 09:28:21;;;;;;;16.15;7.97;;;6.30;84.50;;;;;;5073697;28;20284;-92
2023/12/15 09:30:48;;;;;;;8.55;6.13;;;6.30;83.20;;;;;;5071630;28;20280;-91
2023/12/15 09:33:16;;;;;;;8.02;4.90;;;6.40;83.10;;;;;;5072631;28;20671;-90
2023/12/15 09:35:43;;;;;;;5.15;3.95;;;6.50;82.00;;;;;;5073351;28;20639;-91
2023/12/15 09:38:10;;;;;;;9.45;5.45;;;6.50;81.00;;;;;;5073281;28;20218;-90
2023/12/15 09:40:37;;;;;;;11.68;7.63;;;6.60;81.20;;;;;;5073603;28;20222;-91
2023/12/15 09:43:04;;;;;;;6.35;4.05;;;6.60;81.60;;;;;;5073183;28;20228;-91
2023/12/15 09:45:31;;;;;;;6.43;4.75;;;6.60;81.10;;;;;;5073479;28;20277;-91
2023/12/15 09:48:03;;;;;;;5.18;3.10;;;6.60;81.10;;;;;;5073034;28;20612;-90
2023/12/15 09:50:34;;;;;;;6.80;4.40;;;6.60;79.60;;;;;;5073248;28;20182;-90
2023/12/15 09:53:03;;;;;;;5.85;3.72;;;6.60;78.10;;;;;;5073361;28;20198;-88
2023/12/15 09:55:31;;;;;;;5.18;3.25;;;6.60;77.60;;;;;;5073071;28;20214;-91
2023/12/15 09:58:00;;;;;;;7.03;4.30;;;6.60;77.40;;;;;;5073321;28;20276;-88
2023/12/15 10:00:27;;;;;;;6.05;3.42;;;6.60;76.90;;;;;;5073640;28;20228;-92
2023/12/15 10:02:54;;;;;;;4.65;2.97;;;6.60;77.30;;;;;;5072998;28;20247;-93
2023/12/15 10:05:22;;;;;;;5.95;3.55;;;6.60;77.10;;;;;;5072968;28;20285;-92
2023/12/15 10:07:50;;;;;;;4.45;2.70;;;6.60;77.20;;;;;;5071589;28;20280;-92
2023/12/15 10:10:18;;;;;;;4.45;2.92;;;6.70;76.60;;;;;;5072718;28;20272;-90
2023/12/15 10:12:45;;;;;;;6.10;3.28;;;6.70;76.10;;;;;;5072954;28;20200;-92
2023/12/15 10:15:12;;;;;;;5.28;3.13;;;6.80;76.10;;;;;;5073004;28;20305;-92
2023/12/15 10:17:39;;;;;;;4.22;2.60;;;6.80;76.00;;;;;;5073007;28;20263;-92
2023/12/15 10:20:08;;;;;;;5.38;3.40;;;6.80;74.90;;;;;;5073310;28;20286;-92
2023/12/15 10:22:36;;;;;;;4.63;2.92;;;6.80;75.50;;;;;;5073096;28;20285;-92
2023/12/15 10:25:16;;;;;;;4.38;3.17;;;6.80;75.00;;;;;;5072931;28;20327;-87
2023/12/15 10:27:43;;;;;;;18.92;7.90;;;6.80;75.30;;;;;;5073173;28;20257;-91
2023/12/15 10:30:11;;;;;;;7.00;3.85;;;6.90;76.20;;;;;;5073152;28;20222;-92
2023/12/15 10:32:38;;;;;;;4.45;3.53;;;6.90;76.80;;;;;;5072953;28;20376;-92
2023/12/15 10:35:07;;;;;;;5.38;3.90;;;6.90;75.10;;;;;;5072625;28;20210;-91
2023/12/15 10:37:34;;;;;;;4.10;2.60;;;6.90;74.90;;;;;;5072319;28;20550;-92
2023/12/15 10:40:05;;;;;;;5.43;2.85;;;6.90;75.60;;;;;;5072609;28;20240;-91
2023/12/15 10:42:32;;;;;;;4.82;3.35;;;6.90;76.40;;;;;;5072422;28;20178;-91
2023/12/15 10:44:59;;;;;;;4.10;2.83;;;7.00;76.40;;;;;;5071926;28;20277;-91
2023/12/15 10:47:27;;;;;;;4.10;3.17;;;7.00;77.10;;;;;;5072231;28;20309;-93
2023/12/15 10:49:54;;;;;;;3.53;1.95;;;7.10;76.70;;;;;;5073251;28;20190;-91
2023/12/15 10:52:23;;;;;;;4.15;2.97;;;7.10;76.30;;;;;;5076564;28;20289;-92
2023/12/15 10:54:50;;;;;;;4.60;2.35;;;7.20;76.30;;;;;;5076430;28;20301;-92
2023/12/15 10:57:19;;;;;;;4.55;2.22;;;7.30;74.50;;;;;;5076420;28;20201;-92
2023/12/15 10:59:50;;;;;;;3.58;2.20;;;7.40;72.70;;;;;;5076521;28;20201;-93
2023/12/15 11:02:19;;;;;;;4.57;2.22;;;7.40;73.70;;;;;;5075980;28;20649;-91
2023/12/15 11:04:49;;;;;;;3.22;2.00;;;7.50;73.10;;;;;;5076319;28;20276;-92
2023/12/15 11:07:20;;;;;;;4.30;2.65;;;7.60;73.10;;;;;;5076644;28;20194;-93
2023/12/15 11:09:48;;;;;;;3.55;2.00;;;7.70;72.80;;;;;;5075941;28;20270;-91
2023/12/15 11:12:28;;;;;;;3.95;2.30;;;7.80;71.80;;;;;;5075905;28;20282;-92
2023/12/15 11:14:59;;;;;;;3.22;1.90;;;7.90;70.20;;;;;;5075993;28;20645;-92
2023/12/15 11:17:26;;;;;;;3.00;2.17;;;7.90;69.40;;;;;;5076252;28;20283;-92
2023/12/15 11:19:59;;;;;;;3.33;2.05;;;8.00;69.60;;;;;;5075763;28;20186;-92
2023/12/15 11:22:28;;;;;;;3.30;2.20;;;8.00;69.00;;;;;;5076203;28;20185;-92
2023/12/15 11:24:56;;;;;;;3.13;1.60;;;8.10;68.00;;;;;;5075586;28;20724;-93
2023/12/15 11:27:25;;;;;;;4.50;2.05;;;8.10;67.40;;;;;;5075907;28;20186;-93
2023/12/15 11:30:18;;;;;;;3.33;1.70;;;8.10;66.20;;;;;;5075944;28;20190;-92
2023/12/15 11:32:45;;;;;;;3.03;1.88;;;8.00;66.40;;;;;;5075311;28;20194;-92
2023/12/15 11:35:27;;;;;;;3.25;1.88;;;8.00;66.70;;;;;;5075827;28;20763;-93
2023/12/15 11:37:57;;;;;;;3.95;2.30;;;8.00;66.00;;;;;;5075882;28;20198;-93
2023/12/15 11:40:24;;;;;;;2.70;1.48;;;8.00;66.10;;;;;;5075797;28;20273;-93
2023/12/15 11:42:53;;;;;;;2.60;1.30;;;8.00;66.20;;;;;;5075330;28;20234;-93
2023/12/15 11:45:20;;;;;;;3.33;1.92;;;8.00;66.10;;;;;;5075740;28;20225;-93
2023/12/15 11:47:47;;;;;;;2.75;1.83;;;8.00;67.10;;;;;;5075685;28;20307;-92
2023/12/15 11:50:14;;;;;;;3.80;1.90;;;8.00;65.00;;;;;;5075191;28;20715;-93
2023/12/15 11:52:41;;;;;;;3.25;1.98;;;8.00;65.30;;;;;;5074990;28;20237;-94
2023/12/15 11:55:09;;;;;;;2.67;1.70;;;8.00;65.50;;;;;;5075309;28;20249;-92
2023/12/15 11:57:37;;;;;;;3.17;2.10;;;8.00;65.10;;;;;;5075282;28;20272;-93
2023/12/15 12:00:09;;;;;;;3.25;1.90;;;8.00;64.90;;;;;;5074963;28;20194;-93
2023/12/15 12:02:37;;;;;;;3.55;1.90;;;8.00;64.80;;;;;;5074672;28;20269;-93
2023/12/15 12:05:07;;;;;;;4.65;2.15;;;8.00;64.90;;;;;;5075249;28;20288;-89
2023/12/15 12:07:34;;;;;;;3.55;2.33;;;8.00;65.00;;;;;;5077059;28;20185;-92
2023/12/15 12:10:05;;;;;;;4.18;2.70;;;8.00;65.80;;;;;;5090745;28;20186;-92
2023/12/15 12:12:32;;;;;;;4.10;2.40;;;8.00;66.20;;;;;;5095029;28;20182;-92
2023/12/15 12:15:05;;;;;;;4.93;2.60;;;8.00;66.00;;;;;;5094803;28;20263;-92
2023/12/15 12:17:33;;;;;;;5.00;2.63;;;8.00;66.30;;;;;;5095425;28;20550;-93
2023/12/15 12:20:06;;;;;;;3.78;2.35;;;8.00;66.40;;;;;;5095203;28;20675;-93
2023/12/15 12:22:33;;;;;;;3.25;2.25;;;8.00;66.30;;;;;;5094867;28;20186;-94
2023/12/15 12:25:01;;;;;;;4.40;3.05;;;8.10;65.70;;;;;;5094657;28;20229;-92
2023/12/15 12:27:32;;;;;;;3.20;2.40;;;8.10;65.30;;;;;;5094211;28;20189;-91
2023/12/15 12:29:59;;;;;;;3.75;2.67;;;8.10;65.20;;;;;;5094713;28;20625;-93
2023/12/15 12:32:28;;;;;;;4.88;2.75;;;8.10;64.90;;;;;;5093694;28;20644;-93
2023/12/15 12:34:57;;;;;;;4.88;3.50;;;8.10;65.60;;;;;;5094087;28;20213;-94
2023/12/15 12:37:24;;;;;;;3.95;2.80;;;8.20;65.90;;;;;;5094809;28;20185;-93
2023/12/15 12:39:50;;;;;;;4.70;3.35;;;8.20;65.90;;;;;;5094420;28;20842;-88
2023/12/15 12:42:17;;;;;;;5.82;3.40;;;8.30;66.10;;;;;;5094385;28;20228;-92
2023/12/15 12:44:44;;;;;;;4.90;3.10;;;8.30;66.00;;;;;;5094671;28;20220;-93
2023/12/15 12:47:11;;;;;;;4.20;2.90;;;8.30;65.50;;;;;;5094112;28;20704;-94
2023/12/15 12:49:40;;;;;;;3.90;2.60;;;8.30;65.80;;;;;;5092927;28;20213;-94
2023/12/15 12:52:07;;;;;;;4.88;3.58;;;8.30;66.00;;;;;;5094451;28;20220;-94
2023/12/15 12:54:34;;;;;;;4.90;3.55;;;8.30;65.80;;;;;;5094301;28;20217;-93
2023/12/15 12:57:03;;;;;;;4.07;2.53;;;8.40;66.90;;;;;;5093216;28;20269;-93